sensor_id;sensor_type;location;lat;lon;timestamp;pressure;altitude;pressure_sealevel;temperature;humidity
61506;BME280;47366;51.916;4.574;2023-09-19T00:01:06;100804.06;;;15.90;78.16
61506;BME280;47366;51.916;4.574;2023-09-19T00:03:34;100806.78;;;15.90;77.74
61506;BME280;47366;51.916;4.574;2023-09-19T00:06:02;100816.13;;;15.87;76.68
61506;BME280;47366;51.916;4.574;2023-09-19T00:08:27;100811.91;;;15.83;76.35
61506;BME280;47366;51.916;4.574;2023-09-19T00:10:54;100821.81;;;15.84;76.28
61506;BME280;47366;51.916;4.574;2023-09-19T00:13:20;100816.63;;;15.81;75.12
61506;BME280;47366;51.916;4.574;2023-09-19T00:15:47;100813.41;;;15.76;74.10
61506;BME280;47366;51.916;4.574;2023-09-19T00:18:14;100831.41;;;15.79;73.74
61506;BME280;47366;51.916;4.574;2023-09-19T00:20:40;100839.34;;;15.82;74.04
61506;BME280;47366;51.916;4.574;2023-09-19T00:23:07;100828.13;;;15.85;74.21
61506;BME280;47366;51.916;4.574;2023-09-19T00:25:36;100821.22;;;15.81;74.42
61506;BME280;47366;51.916;4.574;2023-09-19T00:28:02;100831.41;;;15.79;75.29
61506;BME280;47366;51.916;4.574;2023-09-19T00:30:28;100823.72;;;15.73;74.64
61506;BME280;47366;51.916;4.574;2023-09-19T00:32:54;100833.03;;;15.70;74.60
61506;BME280;47366;51.916;4.574;2023-09-19T00:35:20;100841.84;;;15.74;75.19
61506;BME280;47366;51.916;4.574;2023-09-19T00:37:49;100831.28;;;15.80;75.53
61506;BME280;47366;51.916;4.574;2023-09-19T00:40:14;100828.69;;;15.79;75.77
61506;BME280;47366;51.916;4.574;2023-09-19T00:42:43;100834.63;;;15.73;75.87
61506;BME280;47366;51.916;4.574;2023-09-19T00:45:10;100829.66;;;15.66;75.88
61506;BME280;47366;51.916;4.574;2023-09-19T00:47:40;100840.09;;;15.73;76.32
61506;BME280;47366;51.916;4.574;2023-09-19T00:50:08;100838.59;;;15.68;76.03
61506;BME280;47366;51.916;4.574;2023-09-19T00:52:38;100846.56;;;15.71;76.18
61506;BME280;47366;51.916;4.574;2023-09-19T00:55:08;100849.41;;;15.70;75.81
61506;BME280;47366;51.916;4.574;2023-09-19T00:57:35;100840.72;;;15.65;76.26
61506;BME280;47366;51.916;4.574;2023-09-19T01:00:02;100852.88;;;15.72;76.32
61506;BME280;47366;51.916;4.574;2023-09-19T01:02:32;100846.06;;;15.66;76.06
61506;BME280;47366;51.916;4.574;2023-09-19T01:04:58;100849.75;;;15.65;76.04
61506;BME280;47366;51.916;4.574;2023-09-19T01:07:25;100863.41;;;15.65;76.23
61506;BME280;47366;51.916;4.574;2023-09-19T01:09:50;100867.41;;;15.61;76.02
61506;BME280;47366;51.916;4.574;2023-09-19T01:12:23;100862.94;;;15.60;75.76
61506;BME280;47366;51.916;4.574;2023-09-19T01:15:00;100855.00;;;15.57;75.60
61506;BME280;47366;51.916;4.574;2023-09-19T01:17:34;100868.03;;;15.54;75.52
61506;BME280;47366;51.916;4.574;2023-09-19T01:20:30;100862.19;;;15.58;74.85
61506;BME280;47366;51.916;4.574;2023-09-19T01:23:08;100860.97;;;15.51;75.32
61506;BME280;47366;51.916;4.574;2023-09-19T01:28:39;100871.75;;;15.53;76.11
61506;BME280;47366;51.916;4.574;2023-09-19T01:31:10;100870.91;;;15.52;76.04
61506;BME280;47366;51.916;4.574;2023-09-19T01:36:27;100865.19;;;15.44;75.98
61506;BME280;47366;51.916;4.574;2023-09-19T01:38:55;100864.22;;;15.45;76.05
61506;BME280;47366;51.916;4.574;2023-09-19T01:41:33;100868.78;;;15.44;76.10
61506;BME280;47366;51.916;4.574;2023-09-19T01:44:04;100867.16;;;15.42;76.51
61506;BME280;47366;51.916;4.574;2023-09-19T01:46:34;100869.19;;;15.40;76.19
61506;BME280;47366;51.916;4.574;2023-09-19T01:52:10;100864.97;;;15.36;76.18
61506;BME280;47366;51.916;4.574;2023-09-19T01:54:52;100866.69;;;15.37;75.95
61506;BME280;47366;51.916;4.574;2023-09-19T01:57:22;100862.22;;;15.36;75.50
61506;BME280;47366;51.916;4.574;2023-09-19T02:00:13;100874.13;;;15.35;75.76
61506;BME280;47366;51.916;4.574;2023-09-19T02:02:42;100867.19;;;15.31;75.38
61506;BME280;47366;51.916;4.574;2023-09-19T02:05:09;100877.09;;;15.32;75.57
61506;BME280;47366;51.916;4.574;2023-09-19T02:07:35;100870.16;;;15.27;75.02
61506;BME280;47366;51.916;4.574;2023-09-19T02:10:01;100870.41;;;15.24;75.20
61506;BME280;47366;51.916;4.574;2023-09-19T02:12:27;100874.63;;;15.28;75.32
61506;BME280;47366;51.916;4.574;2023-09-19T02:14:52;100876.13;;;15.33;75.27
61506;BME280;47366;51.916;4.574;2023-09-19T02:17:18;100869.19;;;15.28;75.42
61506;BME280;47366;51.916;4.574;2023-09-19T02:19:44;100862.47;;;15.21;75.17
61506;BME280;47366;51.916;4.574;2023-09-19T02:22:10;100860.25;;;15.26;75.00
61506;BME280;47366;51.916;4.574;2023-09-19T02:24:36;100868.53;;;15.25;75.29
61506;BME280;47366;51.916;4.574;2023-09-19T02:27:03;100871.53;;;15.22;75.07
61506;BME280;47366;51.916;4.574;2023-09-19T02:29:31;100868.44;;;15.26;75.36
61506;BME280;47366;51.916;4.574;2023-09-19T02:31:57;100879.22;;;15.28;75.46
61506;BME280;47366;51.916;4.574;2023-09-19T02:34:22;100881.44;;;15.23;75.41
61506;BME280;47366;51.916;4.574;2023-09-19T02:36:48;100889.50;;;15.24;75.25
61506;BME280;47366;51.916;4.574;2023-09-19T02:39:14;100886.53;;;15.27;75.62
61506;BME280;47366;51.916;4.574;2023-09-19T02:41:39;100891.50;;;15.22;75.73
61506;BME280;47366;51.916;4.574;2023-09-19T02:44:07;100888.28;;;15.17;75.12
61506;BME280;47366;51.916;4.574;2023-09-19T02:46:32;100890.88;;;15.19;75.55
61506;BME280;47366;51.916;4.574;2023-09-19T02:48:58;100887.53;;;15.15;75.54
61506;BME280;47366;51.916;4.574;2023-09-19T02:51:23;100873.28;;;15.12;75.88
61506;BME280;47366;51.916;4.574;2023-09-19T02:53:50;100874.63;;;15.06;76.22
61506;BME280;47366;51.916;4.574;2023-09-19T02:56:17;100872.53;;;15.10;76.66
61506;BME280;47366;51.916;4.574;2023-09-19T02:58:43;100866.56;;;15.04;76.43
61506;BME280;47366;51.916;4.574;2023-09-19T03:01:10;100865.81;;;15.02;76.89
61506;BME280;47366;51.916;4.574;2023-09-19T03:03:38;100872.03;;;15.04;76.86
61506;BME280;47366;51.916;4.574;2023-09-19T03:06:06;100873.00;;;15.03;77.16
61506;BME280;47366;51.916;4.574;2023-09-19T03:08:34;100882.78;;;15.06;77.06
61506;BME280;47366;51.916;4.574;2023-09-19T03:11:03;100871.38;;;15.01;76.73
61506;BME280;47366;51.916;4.574;2023-09-19T03:13:29;100885.78;;;15.03;76.84
61506;BME280;47366;51.916;4.574;2023-09-19T03:15:56;100893.22;;;15.01;77.10
61506;BME280;47366;51.916;4.574;2023-09-19T03:18:24;100879.06;;;14.96;76.93
61506;BME280;47366;51.916;4.574;2023-09-19T03:20:54;100879.06;;;14.96;77.10
61506;BME280;47366;51.916;4.574;2023-09-19T03:23:20;100887.16;;;14.97;76.84
61506;BME280;47366;51.916;4.574;2023-09-19T03:25:45;100881.31;;;14.91;76.98
61506;BME280;47366;51.916;4.574;2023-09-19T03:28:11;100891.22;;;14.92;76.65
61506;BME280;47366;51.916;4.574;2023-09-19T03:30:37;100877.81;;;14.89;77.38
61506;BME280;47366;51.916;4.574;2023-09-19T03:33:03;100873.38;;;14.88;76.88
61506;BME280;47366;51.916;4.574;2023-09-19T03:35:30;100888.84;;;14.87;76.79
61506;BME280;47366;51.916;4.574;2023-09-19T03:37:55;100882.53;;;14.86;76.55
61506;BME280;47366;51.916;4.574;2023-09-19T03:40:21;100873.59;;;14.84;76.73
61506;BME280;47366;51.916;4.574;2023-09-19T03:42:46;100873.84;;;14.81;76.76
61506;BME280;47366;51.916;4.574;2023-09-19T03:45:13;100877.56;;;14.80;76.89
61506;BME280;47366;51.916;4.574;2023-09-19T03:47:41;100871.97;;;14.82;76.88
61506;BME280;47366;51.916;4.574;2023-09-19T03:50:07;100869.63;;;14.77;77.14
61506;BME280;47366;51.916;4.574;2023-09-19T03:52:33;100886.38;;;14.84;77.28
61506;BME280;47366;51.916;4.574;2023-09-19T03:54:59;100884.66;;;14.83;77.13
61506;BME280;47366;51.916;4.574;2023-09-19T03:57:25;100898.03;;;14.86;77.29
61506;BME280;47366;51.916;4.574;2023-09-19T03:59:50;100890.97;;;14.83;77.30
61506;BME280;47366;51.916;4.574;2023-09-19T04:02:18;100900.66;;;14.88;77.31
61506;BME280;47366;51.916;4.574;2023-09-19T04:04:50;100902.47;;;14.87;77.90
61506;BME280;47366;51.916;4.574;2023-09-19T04:07:16;100899.66;;;14.89;77.78
61506;BME280;47366;51.916;4.574;2023-09-19T04:09:41;100904.59;;;14.83;78.02
61506;BME280;47366;51.916;4.574;2023-09-19T04:12:07;100910.31;;;14.80;78.62
61506;BME280;47366;51.916;4.574;2023-09-19T04:14:34;100907.03;;;14.75;78.35
61506;BME280;47366;51.916;4.574;2023-09-19T04:16:59;100930.13;;;14.82;78.16
61506;BME280;47366;51.916;4.574;2023-09-19T04:19:25;100918.94;;;14.74;78.73
61506;BME280;47366;51.916;4.574;2023-09-19T04:21:51;100940.41;;;14.79;78.88
61506;BME280;47366;51.916;4.574;2023-09-19T04:24:16;100925.25;;;14.75;79.09
61506;BME280;47366;51.916;4.574;2023-09-19T04:26:44;100936.56;;;14.81;78.91
61506;BME280;47366;51.916;4.574;2023-09-19T04:29:10;100926.13;;;14.75;79.30
61506;BME280;47366;51.916;4.574;2023-09-19T04:31:36;100927.13;;;14.74;79.62
61506;BME280;47366;51.916;4.574;2023-09-19T04:34:03;100934.44;;;14.74;79.78
61506;BME280;47366;51.916;4.574;2023-09-19T04:36:28;100932.31;;;14.66;79.50
61506;BME280;47366;51.916;4.574;2023-09-19T04:38:55;100927.72;;;14.67;80.50
61506;BME280;47366;51.916;4.574;2023-09-19T04:41:20;100927.59;;;14.68;79.99
61506;BME280;47366;51.916;4.574;2023-09-19T04:43:47;100926.13;;;14.64;79.87
61506;BME280;47366;51.916;4.574;2023-09-19T04:46:12;100939.25;;;14.70;79.92
61506;BME280;47366;51.916;4.574;2023-09-19T04:48:39;100932.53;;;14.63;80.30
61506;BME280;47366;51.916;4.574;2023-09-19T04:51:05;100930.56;;;14.65;80.13
61506;BME280;47366;51.916;4.574;2023-09-19T04:53:30;100933.19;;;14.67;79.73
61506;BME280;47366;51.916;4.574;2023-09-19T04:55:55;100929.06;;;14.61;80.17
61506;BME280;47366;51.916;4.574;2023-09-19T04:58:22;100929.81;;;14.63;80.10
61506;BME280;47366;51.916;4.574;2023-09-19T05:00:48;100927.84;;;14.65;80.32
61506;BME280;47366;51.916;4.574;2023-09-19T05:03:13;100929.81;;;14.63;80.17
61506;BME280;47366;51.916;4.574;2023-09-19T05:05:38;100938.63;;;14.67;80.32
61506;BME280;47366;51.916;4.574;2023-09-19T05:08:06;100922.13;;;14.68;80.50
61506;BME280;47366;51.916;4.574;2023-09-19T05:10:32;100950.06;;;14.72;80.20
61506;BME280;47366;51.916;4.574;2023-09-19T05:12:57;100946.97;;;14.76;80.14
61506;BME280;47366;51.916;4.574;2023-09-19T05:15:23;100940.66;;;14.76;80.07
61506;BME280;47366;51.916;4.574;2023-09-19T05:17:49;100938.53;;;14.79;80.12
61506;BME280;47366;51.916;4.574;2023-09-19T05:20:16;100939.75;;;14.75;80.22
61506;BME280;47366;51.916;4.574;2023-09-19T05:22:42;100930.97;;;14.72;80.24
61506;BME280;47366;51.916;4.574;2023-09-19T05:25:09;100924.50;;;14.73;80.26
61506;BME280;47366;51.916;4.574;2023-09-19T05:27:35;100929.97;;;14.73;80.70
61506;BME280;47366;51.916;4.574;2023-09-19T05:30:00;100928.25;;;14.72;80.57
61506;BME280;47366;51.916;4.574;2023-09-19T05:32:26;100928.34;;;14.70;81.11
61506;BME280;47366;51.916;4.574;2023-09-19T05:34:51;100914.09;;;14.67;81.01
61506;BME280;47366;51.916;4.574;2023-09-19T05:37:19;100921.91;;;14.71;81.21
61506;BME280;47366;51.916;4.574;2023-09-19T05:39:44;100921.53;;;14.64;81.98
61506;BME280;47366;51.916;4.574;2023-09-19T05:42:10;100921.41;;;14.66;81.74
61506;BME280;47366;51.916;4.574;2023-09-19T05:44:35;100925.63;;;14.70;81.88
61506;BME280;47366;51.916;4.574;2023-09-19T05:47:04;100923.78;;;14.71;81.78
61506;BME280;47366;51.916;4.574;2023-09-19T05:49:29;100941.63;;;14.75;81.79
61506;BME280;47366;51.916;4.574;2023-09-19T05:51:55;100935.41;;;14.73;81.82
61506;BME280;47366;51.916;4.574;2023-09-19T05:54:21;100932.59;;;14.74;82.51
61506;BME280;47366;51.916;4.574;2023-09-19T05:56:47;100950.56;;;14.77;82.66
61506;BME280;47366;51.916;4.574;2023-09-19T05:59:13;100959.97;;;14.73;83.01
61506;BME280;47366;51.916;4.574;2023-09-19T06:01:44;100956.38;;;14.72;83.37
61506;BME280;47366;51.916;4.574;2023-09-19T06:04:09;100957.97;;;14.75;83.15
61506;BME280;47366;51.916;4.574;2023-09-19T06:06:35;100957.97;;;14.75;83.07
61506;BME280;47366;51.916;4.574;2023-09-19T06:09:04;100947.09;;;14.75;83.39
61506;BME280;47366;51.916;4.574;2023-09-19T06:11:31;100959.59;;;14.77;83.09
61506;BME280;47366;51.916;4.574;2023-09-19T06:13:59;100968.53;;;14.79;83.27
61506;BME280;47366;51.916;4.574;2023-09-19T06:16:30;100964.59;;;14.83;83.08
61506;BME280;47366;51.916;4.574;2023-09-19T06:18:57;100960.00;;;14.84;83.28
61506;BME280;47366;51.916;4.574;2023-09-19T06:21:23;100969.03;;;14.84;83.21
61506;BME280;47366;51.916;4.574;2023-09-19T06:23:49;100967.22;;;14.85;83.09
61506;BME280;47366;51.916;4.574;2023-09-19T06:26:14;100959.75;;;14.87;83.29
61506;BME280;47366;51.916;4.574;2023-09-19T06:28:40;100965.75;;;14.92;82.95
61506;BME280;47366;51.916;4.574;2023-09-19T06:31:06;100968.34;;;14.94;83.21
61506;BME280;47366;51.916;4.574;2023-09-19T06:33:35;100967.72;;;14.90;82.92
61506;BME280;47366;51.916;4.574;2023-09-19T06:36:03;100965.59;;;14.94;83.10
61506;BME280;47366;51.916;4.574;2023-09-19T06:38:29;100965.34;;;14.97;82.99
61506;BME280;47366;51.916;4.574;2023-09-19T06:40:55;100977.03;;;14.99;82.77
61506;BME280;47366;51.916;4.574;2023-09-19T06:43:20;100973.53;;;14.97;82.63
61506;BME280;47366;51.916;4.574;2023-09-19T06:45:46;100975.91;;;15.01;82.51
61506;BME280;47366;51.916;4.574;2023-09-19T06:48:11;100976.56;;;15.05;82.48
61506;BME280;47366;51.916;4.574;2023-09-19T06:50:37;100971.84;;;15.07;82.58
61506;BME280;47366;51.916;4.574;2023-09-19T06:53:03;100966.50;;;15.05;82.78
61506;BME280;47366;51.916;4.574;2023-09-19T06:55:29;100976.59;;;15.16;82.48
61506;BME280;47366;51.916;4.574;2023-09-19T06:57:57;100978.97;;;15.21;82.67
61506;BME280;47366;51.916;4.574;2023-09-19T07:00:23;100963.31;;;15.23;82.60
61506;BME280;47366;51.916;4.574;2023-09-19T07:02:55;100979.84;;;15.33;82.41
61506;BME280;47366;51.916;4.574;2023-09-19T07:05:21;100983.81;;;15.40;82.27
61506;BME280;47366;51.916;4.574;2023-09-19T07:07:47;100971.91;;;15.41;82.20
61506;BME280;47366;51.916;4.574;2023-09-19T07:10:13;100982.47;;;15.45;82.45
61506;BME280;47366;51.916;4.574;2023-09-19T07:12:39;100971.91;;;15.41;82.46
61506;BME280;47366;51.916;4.574;2023-09-19T07:15:06;100983.34;;;15.57;81.76
61506;BME280;47366;51.916;4.574;2023-09-19T07:17:32;100978.72;;;15.58;81.93
61506;BME280;47366;51.916;4.574;2023-09-19T07:19:58;100976.66;;;15.73;81.82
61506;BME280;47366;51.916;4.574;2023-09-19T07:22:24;100977.03;;;15.79;81.38
61506;BME280;47366;51.916;4.574;2023-09-19T07:24:51;100977.03;;;15.90;80.50
61506;BME280;47366;51.916;4.574;2023-09-19T07:27:16;100988.06;;;16.00;80.64
61506;BME280;47366;51.916;4.574;2023-09-19T07:29:41;100980.63;;;16.02;80.56
61506;BME280;47366;51.916;4.574;2023-09-19T07:32:07;100976.59;;;16.06;80.28
61506;BME280;47366;51.916;4.574;2023-09-19T07:34:33;100984.09;;;16.04;80.59
61506;BME280;47366;51.916;4.574;2023-09-19T07:36:58;101000.34;;;16.06;80.64
61506;BME280;47366;51.916;4.574;2023-09-19T07:39:24;100985.69;;;16.07;80.87
61506;BME280;47366;51.916;4.574;2023-09-19T07:41:49;100989.03;;;16.10;80.80
61506;BME280;47366;51.916;4.574;2023-09-19T07:44:15;100993.84;;;16.18;80.73
61506;BME280;47366;51.916;4.574;2023-09-19T07:46:40;100981.31;;;16.27;80.27
61506;BME280;47366;51.916;4.574;2023-09-19T07:49:05;100981.03;;;16.30;80.31
61506;BME280;47366;51.916;4.574;2023-09-19T07:51:31;100989.59;;;16.37;79.88
61506;BME280;47366;51.916;4.574;2023-09-19T07:53:58;100980.03;;;16.42;79.98
61506;BME280;47366;51.916;4.574;2023-09-19T07:56:23;100984.69;;;16.51;79.70
61506;BME280;47366;51.916;4.574;2023-09-19T07:58:49;100979.72;;;16.56;78.97
61506;BME280;47366;51.916;4.574;2023-09-19T08:01:15;100975.31;;;16.65;78.72
61506;BME280;47366;51.916;4.574;2023-09-19T08:03:41;100976.28;;;16.75;78.12
61506;BME280;47366;51.916;4.574;2023-09-19T08:06:08;100974.44;;;16.76;77.71
61506;BME280;47366;51.916;4.574;2023-09-19T08:08:34;100982.63;;;16.76;77.97
61506;BME280;47366;51.916;4.574;2023-09-19T08:11:03;100970.09;;;16.73;78.51
61506;BME280;47366;51.916;4.574;2023-09-19T08:13:36;100976.41;;;16.85;78.51
61506;BME280;47366;51.916;4.574;2023-09-19T08:16:03;100974.22;;;17.00;78.31
61506;BME280;47366;51.916;4.574;2023-09-19T08:18:30;100973.72;;;17.16;77.71
61506;BME280;47366;51.916;4.574;2023-09-19T08:20:55;100969.88;;;17.18;77.28
61506;BME280;47366;51.916;4.574;2023-09-19T08:23:23;100980.72;;;17.30;76.59
61506;BME280;47366;51.916;4.574;2023-09-19T08:25:49;100973.88;;;17.35;76.40
61506;BME280;47366;51.916;4.574;2023-09-19T08:28:14;100965.78;;;17.34;76.54
61506;BME280;47366;51.916;4.574;2023-09-19T08:30:45;100965.75;;;17.55;76.27
61506;BME280;47366;51.916;4.574;2023-09-19T08:33:10;100957.53;;;17.55;75.65
61506;BME280;47366;51.916;4.574;2023-09-19T08:35:36;100965.28;;;17.50;75.55
61506;BME280;47366;51.916;4.574;2023-09-19T08:38:03;100958.34;;;17.46;75.56
61506;BME280;47366;51.916;4.574;2023-09-19T08:40:33;100946.00;;;17.30;75.91
61506;BME280;47366;51.916;4.574;2023-09-19T08:43:01;100951.97;;;17.14;75.89
61506;BME280;47366;51.916;4.574;2023-09-19T08:45:27;100956.09;;;17.09;76.93
61506;BME280;47366;51.916;4.574;2023-09-19T08:50:31;100945.25;;;16.97;77.18
61506;BME280;47366;51.916;4.574;2023-09-19T08:53:01;100958.66;;;17.01;77.84
61506;BME280;47366;51.916;4.574;2023-09-19T08:55:27;100957.13;;;17.08;77.24
61506;BME280;47366;51.916;4.574;2023-09-19T08:58:10;100953.22;;;17.31;77.50
61506;BME280;47366;51.916;4.574;2023-09-19T09:00:38;100956.50;;;17.56;76.31
61506;BME280;47366;51.916;4.574;2023-09-19T09:03:10;100950.59;;;17.51;75.99
61506;BME280;47366;51.916;4.574;2023-09-19T09:05:37;100962.16;;;17.54;76.48
61506;BME280;47366;51.916;4.574;2023-09-19T09:08:06;100960.69;;;17.50;76.00
61506;BME280;47366;51.916;4.574;2023-09-19T09:10:32;100959.41;;;17.54;75.45
61506;BME280;47366;51.916;4.574;2023-09-19T09:12:58;100966.00;;;17.52;74.57
61506;BME280;47366;51.916;4.574;2023-09-19T09:15:24;100973.03;;;17.45;74.93
61506;BME280;47366;51.916;4.574;2023-09-19T09:17:50;100967.00;;;17.51;75.86
61506;BME280;47366;51.916;4.574;2023-09-19T09:20:19;100971.69;;;17.60;75.56
61506;BME280;47366;51.916;4.574;2023-09-19T09:22:55;100965.63;;;17.66;75.69
61506;BME280;47366;51.916;4.574;2023-09-19T09:25:22;100967.09;;;17.70;75.85
61506;BME280;47366;51.916;4.574;2023-09-19T09:28:00;100972.25;;;17.63;75.48
61506;BME280;47366;51.916;4.574;2023-09-19T09:30:34;100963.34;;;17.61;75.87
61506;BME280;47366;51.916;4.574;2023-09-19T09:33:10;100953.41;;;17.70;75.33
61506;BME280;47366;51.916;4.574;2023-09-19T09:35:58;100959.44;;;17.95;75.31
61506;BME280;47366;51.916;4.574;2023-09-19T09:38:24;100961.50;;;18.12;74.67
61506;BME280;47366;51.916;4.574;2023-09-19T09:41:00;100945.06;;;18.22;73.64
61506;BME280;47366;51.916;4.574;2023-09-19T09:43:32;100954.91;;;18.24;73.24
61506;BME280;47366;51.916;4.574;2023-09-19T09:49:02;100941.19;;;18.24;74.33
61506;BME280;47366;51.916;4.574;2023-09-19T09:54:23;100941.72;;;18.09;73.50
61506;BME280;47366;51.916;4.574;2023-09-19T09:57:00;100935.69;;;18.24;74.11
61506;BME280;47366;51.916;4.574;2023-09-19T09:59:47;100948.84;;;18.31;73.27
61506;BME280;47366;51.916;4.574;2023-09-19T10:02:20;100950.16;;;18.36;73.35
61506;BME280;47366;51.916;4.574;2023-09-19T10:04:54;100946.22;;;18.19;72.13
61506;BME280;47366;51.916;4.574;2023-09-19T10:07:35;100962.97;;;18.16;73.42
61506;BME280;47366;51.916;4.574;2023-09-19T10:10:06;100939.72;;;18.11;73.17
61506;BME280;47366;51.916;4.574;2023-09-19T10:12:46;100929.31;;;18.04;73.91
61506;BME280;47366;51.916;4.574;2023-09-19T10:15:17;100937.56;;;18.04;73.35
61506;BME280;47366;51.916;4.574;2023-09-19T10:17:45;100911.56;;;18.09;73.11
61506;BME280;47366;51.916;4.574;2023-09-19T10:20:16;100925.28;;;18.18;73.17
61506;BME280;47366;51.916;4.574;2023-09-19T10:22:59;100917.25;;;18.36;73.06
61506;BME280;47366;51.916;4.574;2023-09-19T10:25:26;100916.22;;;18.37;72.01
61506;BME280;47366;51.916;4.574;2023-09-19T10:27:54;100914.19;;;18.49;71.97
61506;BME280;47366;51.916;4.574;2023-09-19T10:30:22;100903.41;;;18.77;71.56
61506;BME280;47366;51.916;4.574;2023-09-19T10:32:57;100899.84;;;19.14;69.77
61506;BME280;47366;51.916;4.574;2023-09-19T10:35:25;100904.16;;;19.26;69.49
61506;BME280;47366;51.916;4.574;2023-09-19T10:37:51;100916.69;;;19.38;68.97
61506;BME280;47366;51.916;4.574;2023-09-19T10:40:20;100904.09;;;19.45;68.71
61506;BME280;47366;51.916;4.574;2023-09-19T10:42:48;100901.34;;;19.45;68.83
61506;BME280;47366;51.916;4.574;2023-09-19T10:45:17;100914.56;;;19.22;69.01
61506;BME280;47366;51.916;4.574;2023-09-19T10:47:45;100895.13;;;18.96;68.89
61506;BME280;47366;51.916;4.574;2023-09-19T10:50:20;100910.16;;;18.92;69.95
61506;BME280;47366;51.916;4.574;2023-09-19T10:52:47;100896.19;;;18.85;69.99
61506;BME280;47366;51.916;4.574;2023-09-19T10:55:19;100895.88;;;18.79;68.92
61506;BME280;47366;51.916;4.574;2023-09-19T10:57:46;100896.88;;;18.78;69.45
61506;BME280;47366;51.916;4.574;2023-09-19T11:00:12;100878.97;;;18.83;70.18
61506;BME280;47366;51.916;4.574;2023-09-19T11:05:36;100884.31;;;18.85;70.52
61506;BME280;47366;51.916;4.574;2023-09-19T11:08:06;100879.25;;;18.80;69.74
61506;BME280;47366;51.916;4.574;2023-09-19T11:10:45;100883.88;;;18.80;70.40
61506;BME280;47366;51.916;4.574;2023-09-19T11:13:28;100891.31;;;19.17;69.07
61506;BME280;47366;51.916;4.574;2023-09-19T11:26:45;100882.97;;;18.99;68.98
61506;BME280;47366;51.916;4.574;2023-09-19T11:29:29;100885.91;;;18.78;69.16
61506;BME280;47366;51.916;4.574;2023-09-19T11:31:57;100880.41;;;18.68;69.94
61506;BME280;47366;51.916;4.574;2023-09-19T11:34:37;100876.66;;;18.59;69.65
61506;BME280;47366;51.916;4.574;2023-09-19T11:39:36;100872.31;;;18.47;70.57
61506;BME280;47366;51.916;4.574;2023-09-19T11:42:41;100867.00;;;18.45;70.70
61506;BME280;47366;51.916;4.574;2023-09-19T11:48:14;100840.03;;;18.31;70.46
61506;BME280;47366;51.916;4.574;2023-09-19T11:50:42;100858.19;;;18.32;71.05
61506;BME280;47366;51.916;4.574;2023-09-19T11:53:13;100857.19;;;18.33;71.01
61506;BME280;47366;51.916;4.574;2023-09-19T11:55:42;100854.47;;;18.33;71.12
61506;BME280;47366;51.916;4.574;2023-09-19T11:58:09;100859.63;;;18.36;71.35
61506;BME280;47366;51.916;4.574;2023-09-19T12:00:38;100854.03;;;18.38;71.62
61506;BME280;47366;51.916;4.574;2023-09-19T12:03:09;100863.25;;;18.37;71.71
61506;BME280;47366;51.916;4.574;2023-09-19T12:05:36;100867.72;;;18.38;71.61
61506;BME280;47366;51.916;4.574;2023-09-19T12:08:05;100865.97;;;18.37;71.29
61506;BME280;47366;51.916;4.574;2023-09-19T12:10:47;100874.19;;;18.56;71.32
61506;BME280;47366;51.916;4.574;2023-09-19T12:13:17;100880.41;;;18.68;71.30
61506;BME280;47366;51.916;4.574;2023-09-19T12:15:43;100868.56;;;18.77;71.14
61506;BME280;47366;51.916;4.574;2023-09-19T12:18:25;100860.63;;;18.84;70.32
61506;BME280;47366;51.916;4.574;2023-09-19T12:20:51;100868.13;;;18.92;70.68
61506;BME280;47366;51.916;4.574;2023-09-19T12:23:17;100860.75;;;18.92;70.92
61506;BME280;47366;51.916;4.574;2023-09-19T12:25:44;100855.13;;;18.84;70.92
61506;BME280;47366;51.916;4.574;2023-09-19T12:28:12;100864.13;;;18.76;71.09
61506;BME280;47366;51.916;4.574;2023-09-19T12:30:38;100871.31;;;18.77;71.65
61506;BME280;47366;51.916;4.574;2023-09-19T12:33:23;100878.09;;;18.83;71.87
61506;BME280;47366;51.916;4.574;2023-09-19T12:35:51;100875.22;;;18.84;71.95
61506;BME280;47366;51.916;4.574;2023-09-19T12:38:26;100886.47;;;18.91;72.08
61506;BME280;47366;51.916;4.574;2023-09-19T12:41:01;100868.25;;;19.00;72.32
61506;BME280;47366;51.916;4.574;2023-09-19T12:43:30;100860.13;;;19.08;72.07
61506;BME280;47366;51.916;4.574;2023-09-19T12:45:59;100885.84;;;19.17;71.65
61506;BME280;47366;51.916;4.574;2023-09-19T12:48:27;100879.91;;;19.21;70.98
61506;BME280;47366;51.916;4.574;2023-09-19T12:51:06;100862.06;;;19.25;71.36
61506;BME280;47366;51.916;4.574;2023-09-19T12:53:43;100879.09;;;19.39;70.86
61506;BME280;47366;51.916;4.574;2023-09-19T12:56:14;100864.78;;;19.35;70.66
61506;BME280;47366;51.916;4.574;2023-09-19T12:58:57;100860.88;;;19.38;70.68
61506;BME280;47366;51.916;4.574;2023-09-19T13:01:26;100857.13;;;19.39;70.68
61506;BME280;47366;51.916;4.574;2023-09-19T13:04:17;100861.91;;;19.37;70.37
61506;BME280;47366;51.916;4.574;2023-09-19T13:06:46;100862.75;;;19.37;70.73
61506;BME280;47366;51.916;4.574;2023-09-19T13:09:14;100863.06;;;19.34;70.85
61506;BME280;47366;51.916;4.574;2023-09-19T13:11:41;100847.34;;;19.26;70.41
61506;BME280;47366;51.916;4.574;2023-09-19T13:17:01;100874.72;;;19.08;70.85
61506;BME280;47366;51.916;4.574;2023-09-19T13:19:41;100872.84;;;18.99;71.64
61506;BME280;47366;51.916;4.574;2023-09-19T13:22:37;100867.66;;;18.96;71.91
61506;BME280;47366;51.916;4.574;2023-09-19T13:25:17;100845.28;;;18.91;71.67
61506;BME280;47366;51.916;4.574;2023-09-19T13:27:50;100853.41;;;18.93;71.05
61506;BME280;47366;51.916;4.574;2023-09-19T13:30:17;100848.78;;;18.83;70.98
61506;BME280;47366;51.916;4.574;2023-09-19T13:32:43;100850.50;;;18.84;70.11
61506;BME280;47366;51.916;4.574;2023-09-19T13:35:09;100838.25;;;18.79;70.88
61506;BME280;47366;51.916;4.574;2023-09-19T13:37:38;100864.38;;;18.83;70.75